Time;durP1;ratioP1;P1;durP2;ratioP2;P2;SDS_P1;SDS_P2;PMS_P1;PMS_P2;Temp;Humidity;BMP_temperature;BMP_pressure;BME280_temperature;BME280_humidity;BME280_pressure;Samples;Min_cycle;Max_cycle;Signal;HPM_P1;HPM_P2
2023/03/16 00:00:57;;;;;;;0.50;0.30;;;3.40;99.90;;;;;;5014290;28;20450;-78
2023/03/16 00:03:29;;;;;;;0.50;0.10;;;3.30;99.90;;;;;;5014066;28;20454;-77
2023/03/16 00:05:57;;;;;;;0.50;0.10;;;3.30;99.90;;;;;;5013317;28;20480;-77
2023/03/16 00:08:25;;;;;;;0.50;0.10;;;3.30;99.90;;;;;;5013064;28;20824;-77
2023/03/16 00:10:53;;;;;;;0.50;0.10;;;3.20;99.90;;;;;;5013219;28;20451;-77
2023/03/16 00:13:24;;;;;;;0.50;0.10;;;3.20;99.90;;;;;;5013249;28;20456;-78
2023/03/16 00:15:52;;;;;;;0.50;0.10;;;3.20;99.90;;;;;;5013469;28;20507;-77
2023/03/16 00:18:22;;;;;;;0.50;0.10;;;3.20;99.90;;;;;;5013490;28;20986;-77
2023/03/16 00:20:51;;;;;;;0.50;0.10;;;3.30;99.90;;;;;;5013593;28;21221;-77
2023/03/16 00:23:26;;;;;;;3.33;3.03;;;3.20;99.90;;;;;;5014599;28;20499;-77
2023/03/16 00:25:54;;;;;;;0.50;0.10;;;3.20;99.90;;;;;;5025666;28;20470;-77
2023/03/16 00:28:24;;;;;;;0.50;0.10;;;3.20;99.90;;;;;;5035524;28;20467;-77
2023/03/16 00:30:52;;;;;;;0.50;0.10;;;3.20;99.90;;;;;;5035057;28;20450;-79
2023/03/16 00:33:20;;;;;;;0.50;0.10;;;3.20;99.90;;;;;;5019521;28;20500;-77
2023/03/16 00:35:49;;;;;;;0.60;0.50;;;3.20;99.90;;;;;;5016051;28;20468;-76
2023/03/16 00:38:17;;;;;;;0.50;0.10;;;3.20;99.90;;;;;;5013517;28;20485;-78
2023/03/16 00:40:45;;;;;;;0.50;0.30;;;3.20;99.90;;;;;;5013410;28;20455;-78
2023/03/16 00:43:17;;;;;;;0.50;0.10;;;3.20;99.90;;;;;;5013129;28;20929;-78
2023/03/16 00:45:46;;;;;;;0.50;0.10;;;3.20;99.90;;;;;;5012996;28;20476;-79
2023/03/16 00:48:15;;;;;;;0.50;0.10;;;3.20;99.90;;;;;;5013501;28;20443;-77
2023/03/16 00:50:43;;;;;;;0.50;0.10;;;3.20;99.90;;;;;;5013423;28;20695;-76
2023/03/16 00:53:10;;;;;;;0.50;0.20;;;3.10;99.90;;;;;;5013470;28;20461;-78
2023/03/16 00:55:38;;;;;;;0.50;0.10;;;3.10;99.90;;;;;;5013380;28;20465;-77
2023/03/16 00:58:06;;;;;;;0.50;0.10;;;3.10;99.90;;;;;;5014497;28;20529;-77
2023/03/16 05:00:55;;;;;;;0.50;0.10;;;2.40;99.90;;;;;;5939816;22;20784;-78
2023/03/16 05:03:23;;;;;;;0.50;0.10;;;2.30;99.90;;;;;;5046831;28;20458;-78
2023/03/16 05:05:50;;;;;;;0.50;0.10;;;2.20;99.90;;;;;;5051245;28;20866;-79
2023/03/16 05:08:18;;;;;;;0.50;0.10;;;2.20;99.90;;;;;;5045162;28;20506;-78
2023/03/16 05:10:47;;;;;;;0.50;0.10;;;2.10;99.90;;;;;;5033425;28;20459;-77
2023/03/16 05:13:15;;;;;;;0.50;0.10;;;2.20;99.90;;;;;;5038422;28;20535;-77
2023/03/16 05:15:42;;;;;;;1.57;0.97;;;2.20;99.90;;;;;;5037394;28;20443;-77
2023/03/16 05:18:12;;;;;;;0.50;0.10;;;2.20;99.90;;;;;;5038341;28;20570;-77
2023/03/16 05:20:40;;;;;;;0.50;0.10;;;2.10;99.90;;;;;;5059181;28;20474;-76
2023/03/16 05:23:08;;;;;;;0.50;0.10;;;2.10;99.90;;;;;;5049266;28;20441;-76
2023/03/16 05:25:35;;;;;;;8.43;3.13;;;2.10;99.90;;;;;;5056489;28;20479;-77
2023/03/16 05:28:04;;;;;;;0.50;0.10;;;2.10;99.90;;;;;;5043380;28;20495;-77
2023/03/16 05:30:32;;;;;;;0.50;0.10;;;2.10;99.90;;;;;;5040104;28;20448;-77
2023/03/16 05:33:00;;;;;;;0.50;0.10;;;2.10;99.90;;;;;;5022686;28;20884;-77
2023/03/16 05:35:29;;;;;;;0.50;0.10;;;2.20;99.90;;;;;;5017330;28;20994;-77
2023/03/16 05:37:57;;;;;;;0.50;0.10;;;2.20;99.90;;;;;;5003495;28;20983;-77
2023/03/16 05:40:27;;;;;;;0.50;0.10;;;2.20;99.90;;;;;;4964652;28;20452;-77
2023/03/16 05:42:59;;;;;;;0.50;0.10;;;2.20;99.90;;;;;;4982330;28;20453;-77
2023/03/16 05:45:27;;;;;;;0.50;0.10;;;2.20;99.90;;;;;;4992121;28;20437;-76
2023/03/16 05:47:55;;;;;;;0.50;0.10;;;2.20;99.90;;;;;;4973839;28;20450;-77
2023/03/16 05:50:23;;;;;;;0.50;0.10;;;2.20;99.90;;;;;;4980176;28;20491;-76
2023/03/16 05:52:53;;;;;;;0.50;0.10;;;2.20;99.90;;;;;;4980576;28;20913;-76
2023/03/16 05:55:20;;;;;;;0.50;0.10;;;2.30;99.90;;;;;;4978858;28;20836;-76
2023/03/16 05:57:48;;;;;;;0.50;0.10;;;2.30;99.90;;;;;;4979268;28;20479;-77
2023/03/16 06:00:17;;;;;;;0.50;0.10;;;2.30;99.90;;;;;;4979354;28;20449;-77
2023/03/16 06:02:47;;;;;;;0.50;0.10;;;2.30;99.90;;;;;;4979726;28;20532;-77
2023/03/16 06:05:16;;;;;;;2.43;2.33;;;2.30;99.90;;;;;;4984824;28;20488;-77
2023/03/16 06:07:44;;;;;;;0.50;0.20;;;2.30;99.90;;;;;;4984942;28;20969;-77
2023/03/16 06:10:14;;;;;;;0.60;0.57;;;2.30;99.90;;;;;;4996926;28;20448;-77
2023/03/16 06:12:42;;;;;;;0.50;0.30;;;2.30;99.90;;;;;;4996316;28;20472;-76
2023/03/16 06:15:12;;;;;;;0.50;0.10;;;2.40;99.90;;;;;;4995424;28;20458;-78
2023/03/16 06:17:41;;;;;;;0.50;0.10;;;2.40;99.90;;;;;;4997582;28;20456;-77
2023/03/16 06:20:11;;;;;;;0.50;0.10;;;2.40;99.90;;;;;;4998089;28;20449;-77
2023/03/16 06:22:41;;;;;;;0.50;0.10;;;2.40;99.90;;;;;;4990752;28;20891;-77
2023/03/16 06:25:11;;;;;;;0.50;0.20;;;2.40;99.90;;;;;;4976907;28;20976;-78
2023/03/16 06:27:40;;;;;;;0.50;0.10;;;2.50;99.90;;;;;;4976666;28;20480;-76
2023/03/16 06:30:11;;;;;;;0.50;0.10;;;2.50;99.90;;;;;;4975685;28;20453;-76
2023/03/16 06:32:41;;;;;;;0.50;0.10;;;2.50;99.90;;;;;;4966838;28;21072;-77
2023/03/16 06:35:10;;;;;;;0.50;0.10;;;2.60;99.90;;;;;;4980841;28;20445;-77
2023/03/16 06:37:38;;;;;;;0.50;0.10;;;2.60;99.90;;;;;;4988139;28;20452;-77
2023/03/16 06:40:07;;;;;;;0.50;0.10;;;2.70;99.90;;;;;;4983076;28;20482;-77
2023/03/16 06:42:36;;;;;;;0.50;0.10;;;2.70;99.90;;;;;;4970764;28;20482;-77
2023/03/16 06:45:07;;;;;;;0.50;0.20;;;3.00;99.90;;;;;;4975555;28;20891;-77
2023/03/16 06:47:34;;;;;;;0.50;0.10;;;3.10;99.90;;;;;;4984361;28;20443;-77
2023/03/16 06:50:03;;;;;;;0.50;0.10;;;3.10;99.90;;;;;;4993918;28;20461;-75
2023/03/16 06:52:31;;;;;;;0.50;0.10;;;3.20;99.90;;;;;;5002328;28;20481;-77
2023/03/16 06:54:59;;;;;;;0.50;0.10;;;3.20;99.90;;;;;;4967262;28;20455;-78
2023/03/16 06:57:27;;;;;;;0.50;0.10;;;3.20;99.90;;;;;;4959133;29;20451;-76
2023/03/16 06:59:55;;;;;;;1.57;1.47;;;3.30;99.90;;;;;;4966730;28;20479;-79
2023/03/16 07:02:24;;;;;;;0.50;0.10;;;3.30;99.90;;;;;;4978365;28;20510;-78
2023/03/16 07:04:52;;;;;;;0.50;0.20;;;3.40;99.90;;;;;;4977334;28;20541;-76
2023/03/16 07:07:20;;;;;;;0.50;0.10;;;3.50;99.90;;;;;;4982653;28;20478;-77
2023/03/16 07:09:48;;;;;;;0.60;0.40;;;3.60;99.90;;;;;;4981971;28;20452;-77
2023/03/16 07:12:16;;;;;;;0.50;0.10;;;3.70;99.90;;;;;;4964782;28;20478;-78
2023/03/16 07:14:44;;;;;;;0.50;0.10;;;3.80;99.90;;;;;;4967378;28;20517;-78
2023/03/16 07:17:15;;;;;;;0.50;0.10;;;3.90;99.90;;;;;;4981876;28;20475;-77
2023/03/16 07:19:45;;;;;;;0.50;0.10;;;;;;;;;;4984678;28;20488;-78
2023/03/16 07:22:13;;;;;;;16.60;15.20;;;4.00;99.90;;;;;;4961247;28;20470;-77
2023/03/16 07:24:42;;;;;;;0.50;0.10;;;4.00;99.90;;;;;;4962653;28;20462;-75
2023/03/16 07:27:11;;;;;;;0.50;0.10;;;4.00;99.90;;;;;;4976550;28;20978;-78
2023/03/16 07:29:39;;;;;;;0.50;0.10;;;4.10;99.90;;;;;;4987129;28;20517;-77
2023/03/16 07:32:07;;;;;;;0.50;0.10;;;4.20;99.90;;;;;;4980734;28;20460;-78
2023/03/16 07:34:35;;;;;;;0.50;0.10;;;4.20;99.90;;;;;;4974589;28;20545;-78
2023/03/16 07:37:05;;;;;;;0.50;0.10;;;4.20;99.90;;;;;;4970372;28;20442;-77
2023/03/16 07:39:33;;;;;;;0.50;0.10;;;4.30;99.90;;;;;;4978420;28;20481;-77
2023/03/16 07:42:01;;;;;;;0.50;0.10;;;4.40;99.90;;;;;;4995649;28;20491;-76
2023/03/16 07:44:30;;;;;;;0.50;0.27;;;4.50;99.90;;;;;;4983944;28;20450;-77
